createdAt,value
2022-09-23T00:01:04.215Z,90.19
2022-09-23T00:05:06.999Z,89.27
2022-09-23T00:09:09.041Z,89.13
2022-09-23T00:13:11.022Z,90.04
2022-09-23T00:17:13.494Z,89.78
2022-09-23T00:21:15.650Z,90.94
2022-09-23T00:25:17.767Z,91.22
2022-09-23T00:29:19.772Z,90.95
2022-09-23T00:33:21.755Z,90.70
2022-09-23T00:37:23.866Z,91.79
2022-09-23T00:41:26.823Z,91.71
2022-09-23T00:45:29.410Z,90.39
2022-09-23T00:49:31.456Z,90.10
2022-09-23T00:53:34.429Z,90.95
2022-09-23T00:57:38.603Z,90.23
2022-09-23T01:01:40.881Z,90.46
2022-09-23T01:05:43.013Z,90.74
2022-09-23T01:09:48.621Z,89.73
2022-09-23T01:13:53.604Z,91.11
2022-09-23T01:18:37.308Z,92.30
2022-09-23T01:23:08.132Z,91.33
2022-09-23T01:27:41.002Z,92.18
2022-09-23T01:32:03.148Z,91.86
2022-09-23T01:36:31.563Z,89.63
2022-09-23T01:40:42.637Z,88.61
2022-09-23T01:45:00.276Z,90.53
2022-09-23T01:49:15.098Z,91.75
2022-09-23T01:53:26.882Z,92.91
2022-09-23T01:57:38.211Z,92.62
2022-09-23T02:01:47.964Z,91.56
2022-09-23T02:06:16.926Z,91.37
2022-09-23T02:10:44.545Z,90.49
2022-09-23T02:15:11.318Z,92.70
2022-09-23T02:19:28.022Z,93.93
2022-09-23T02:23:32.792Z,94.24
2022-09-23T02:27:37.527Z,94.90
2022-09-23T02:31:56.494Z,94.26
2022-09-23T02:36:13.682Z,93.22
2022-09-23T02:40:31.349Z,92.53
2022-09-23T02:44:33.732Z,91.35
2022-09-23T02:48:47.455Z,91.57
2022-09-23T02:52:49.648Z,91.53
2022-09-23T02:56:53.254Z,92.61
2022-09-23T03:01:11.009Z,93.17
2022-09-23T03:05:24.752Z,92.48
2022-09-23T03:09:33.881Z,93.64
2022-09-23T03:14:06.912Z,93.60
2022-09-23T03:18:18.849Z,93.04
2022-09-23T03:22:32.093Z,92.47
2022-09-23T03:26:37.690Z,90.96
2022-09-23T03:30:43.492Z,91.42
2022-09-23T03:34:49.952Z,93.20
2022-09-23T03:38:59.022Z,94.70
2022-09-23T03:43:04.418Z,94.29
2022-09-23T03:47:06.541Z,94.77
2022-09-23T03:51:21.086Z,94.15
2022-09-23T03:55:23.096Z,93.55
2022-09-23T03:59:26.595Z,93.21
2022-09-23T04:03:29.214Z,93.04
2022-09-23T04:07:31.254Z,91.74
2022-09-23T04:11:33.340Z,91.09
2022-09-23T04:15:35.314Z,91.48
2022-09-23T04:19:37.686Z,92.83
2022-09-23T04:23:39.808Z,93.23
2022-09-23T04:27:41.826Z,94.43
2022-09-23T04:31:45.751Z,95.32
2022-09-23T04:35:52.020Z,95.62
2022-09-23T04:39:54.296Z,95.32
2022-09-23T04:43:57.485Z,94.77
2022-09-23T04:47:59.593Z,94.80
2022-09-23T04:52:02.745Z,93.98
2022-09-23T04:56:07.344Z,93.38
2022-09-23T05:00:12.061Z,93.20
2022-09-23T05:04:14.297Z,93.47
2022-09-23T05:08:16.335Z,93.29
2022-09-23T05:12:18.324Z,92.41
2022-09-23T05:16:23.127Z,92.31
2022-09-23T05:20:25.616Z,92.13
2022-09-23T05:24:27.836Z,92.93
2022-09-23T05:28:32.886Z,94.83
2022-09-23T05:32:34.877Z,95.72
2022-09-23T05:36:39.058Z,97.01
2022-09-23T05:40:41.428Z,97.71
2022-09-23T05:44:43.785Z,97.61
2022-09-23T05:48:47.213Z,97.09
2022-09-23T05:52:49.249Z,97.07
2022-09-23T05:56:51.242Z,96.49
2022-09-23T06:00:56.694Z,96.59
2022-09-23T06:04:58.696Z,95.55
2022-09-23T06:09:01.395Z,96.45
2022-09-23T06:13:03.540Z,94.32
2022-09-23T06:17:05.731Z,93.34
2022-09-23T06:21:09.102Z,91.24
2022-09-23T06:25:12.207Z,89.46
2022-09-23T06:29:14.422Z,89.63
2022-09-23T06:33:18.321Z,88.13
2022-09-23T06:37:23.290Z,88.12
2022-09-23T06:41:25.291Z,87.59
2022-09-23T06:45:30.729Z,86.98
2022-09-23T06:49:33.861Z,85.90
2022-09-23T06:53:37.027Z,84.67
2022-09-23T06:57:39.597Z,83.03
2022-09-23T07:01:41.840Z,81.56
2022-09-23T07:05:44.018Z,80.16
2022-09-23T07:09:46.119Z,78.49
2022-09-23T07:13:48.366Z,76.95
2022-09-23T07:17:50.458Z,76.01
2022-09-23T07:21:52.423Z,75.35
2022-09-23T07:25:58.684Z,74.45
2022-09-23T07:30:00.773Z,73.73
2022-09-23T07:34:02.878Z,73.32
2022-09-23T07:38:04.879Z,72.76
2022-09-23T07:42:07.008Z,72.17
2022-09-23T07:46:13.059Z,71.76
2022-09-23T07:50:15.471Z,71.85
2022-09-23T07:54:18.314Z,71.71
2022-09-23T07:58:20.600Z,71.46
2022-09-23T08:02:22.837Z,71.84
2022-09-23T08:06:25.385Z,70.42
2022-09-23T08:10:27.491Z,70.85
2022-09-23T08:14:29.526Z,70.34
2022-09-23T08:18:31.770Z,69.57
2022-09-23T08:22:33.818Z,69.93
2022-09-23T08:26:35.818Z,69.72
2022-09-23T08:30:39.314Z,70.02
2022-09-23T08:34:41.550Z,70.10
2022-09-23T08:38:43.630Z,69.76
2022-09-23T08:42:46.707Z,68.52
2022-09-23T08:47:06.777Z,68.42
2022-09-23T08:51:14.586Z,67.29
2022-09-23T08:55:17.557Z,66.62
2022-09-23T08:59:28.785Z,66.29
2022-09-23T09:03:55.043Z,64.00
2022-09-23T09:08:00.210Z,63.80
2022-09-23T09:12:17.147Z,63.10
2022-09-23T09:17:00.309Z,62.17
2022-09-23T09:21:11.689Z,60.70
2022-09-23T09:25:37.958Z,60.39
2022-09-23T09:29:44.609Z,58.24
2022-09-23T09:34:11.928Z,57.69
2022-09-23T09:38:14.941Z,57.62
2022-09-23T09:42:24.395Z,57.83
2022-09-23T09:46:52.758Z,56.51
2022-09-23T09:50:55.991Z,56.27
2022-09-23T09:55:25.942Z,55.84
2022-09-23T09:59:28.872Z,55.87
2022-09-23T10:03:39.227Z,55.92
2022-09-23T10:07:41.266Z,55.76
2022-09-23T10:12:02.890Z,55.38
2022-09-23T10:16:05.294Z,55.62
2022-09-23T10:20:09.046Z,55.61
2022-09-23T10:24:23.026Z,55.71
2022-09-23T10:28:48.433Z,54.91
2022-09-23T10:32:53.061Z,54.08
2022-09-23T10:37:36.404Z,53.86
2022-09-23T10:42:12.159Z,54.30
2022-09-23T10:46:41.371Z,53.71
2022-09-23T10:50:55.462Z,53.35
2022-09-23T10:55:19.305Z,52.96
2022-09-23T10:59:36.551Z,52.98
2022-09-23T11:03:54.296Z,52.88
2022-09-23T11:08:19.814Z,51.98
2022-09-23T11:12:33.986Z,51.57
2022-09-23T11:16:42.095Z,51.81
2022-09-23T11:21:07.169Z,51.39
2022-09-23T11:25:18.463Z,50.54
2022-09-23T11:29:42.864Z,50.75
2022-09-23T11:33:52.750Z,50.35
2022-09-23T11:38:07.533Z,50.17
2022-09-23T11:42:20.001Z,50.35
2022-09-23T11:46:44.198Z,50.66
2022-09-23T11:51:14.592Z,49.32
2022-09-23T11:55:22.777Z,49.65
2022-09-23T11:59:51.086Z,49.38
2022-09-23T12:04:17.847Z,49.38
2022-09-23T12:08:26.666Z,49.23
2022-09-23T12:12:49.170Z,48.44
2022-09-23T12:17:19.035Z,48.54
2022-09-23T12:21:51.693Z,48.39
2022-09-23T12:25:58.617Z,47.66
2022-09-23T12:30:12.594Z,47.54
2022-09-23T12:34:20.877Z,47.48
2022-09-23T12:38:31.654Z,47.29
2022-09-23T12:42:33.814Z,47.17
2022-09-23T12:46:36.059Z,46.43
2022-09-23T12:51:00.367Z,46.49
2022-09-23T12:55:22.004Z,46.94
2022-09-23T12:59:32.918Z,46.65
2022-09-23T13:03:53.715Z,47.03
2022-09-23T13:08:02.429Z,47.05
2022-09-23T13:12:08.385Z,46.85
2022-09-23T13:16:14.107Z,47.38
2022-09-23T13:20:19.101Z,48.10
2022-09-23T13:24:31.060Z,48.32
2022-09-23T13:28:54.734Z,48.15
2022-09-23T13:33:12.731Z,48.19
2022-09-23T13:37:22.681Z,47.92
2022-09-23T13:41:28.615Z,48.15
2022-09-23T13:45:32.350Z,48.24
2022-09-23T13:49:36.250Z,47.85
2022-09-23T13:53:38.769Z,47.56
2022-09-23T13:57:41.284Z,47.32
2022-09-23T14:01:43.306Z,47.18
2022-09-23T14:05:46.270Z,46.82
2022-09-23T14:09:50.902Z,46.68
2022-09-23T14:13:54.937Z,46.84
2022-09-23T14:18:06.204Z,46.78
2022-09-23T14:22:23.407Z,46.88
2022-09-23T14:26:26.208Z,46.18
2022-09-23T14:30:28.815Z,46.50
2022-09-23T14:34:51.939Z,47.05
2022-09-23T14:39:04.903Z,46.75
2022-09-23T14:43:23.114Z,46.70
2022-09-23T14:47:25.448Z,47.12
2022-09-23T14:51:35.039Z,47.23
2022-09-23T14:55:37.205Z,47.80
2022-09-23T14:59:51.168Z,47.72
2022-09-23T15:03:55.609Z,47.98
2022-09-23T15:08:01.358Z,48.48
2022-09-23T15:12:12.177Z,48.63
2022-09-23T15:16:15.899Z,48.19
2022-09-23T15:20:19.754Z,48.31
2022-09-23T15:24:35.537Z,48.74
2022-09-23T15:28:38.026Z,49.02
2022-09-23T15:32:40.545Z,49.75
2022-09-23T15:36:42.665Z,50.11
2022-09-23T15:40:44.939Z,50.39
2022-09-23T15:44:47.013Z,50.46
2022-09-23T15:49:03.392Z,51.21
2022-09-23T15:53:06.696Z,51.65
2022-09-23T15:57:08.699Z,51.73
2022-09-23T16:01:24.041Z,52.13
2022-09-23T16:05:36.753Z,52.82
2022-09-23T16:09:38.829Z,53.11
2022-09-23T16:13:40.793Z,53.29
2022-09-23T16:17:44.178Z,53.87
2022-09-23T16:21:46.303Z,55.60
2022-09-23T16:25:48.378Z,55.12
2022-09-23T16:29:50.371Z,55.64
2022-09-23T16:33:53.444Z,56.31
2022-09-23T16:37:55.828Z,56.65
2022-09-23T16:41:58.513Z,57.30
2022-09-23T16:46:00.987Z,57.60
2022-09-23T16:50:03.191Z,58.26
2022-09-23T16:54:11.049Z,58.68
2022-09-23T16:58:13.070Z,59.47
2022-09-23T17:02:33.897Z,59.68
2022-09-23T17:06:42.031Z,60.46
2022-09-23T17:10:45.781Z,60.89
2022-09-23T17:14:47.783Z,61.53
2022-09-23T17:18:49.841Z,61.97
2022-09-23T17:22:51.846Z,62.55
2022-09-23T17:26:53.921Z,63.14
2022-09-23T17:31:00.822Z,64.19
2022-09-23T17:35:04.593Z,64.68
2022-09-23T17:39:07.011Z,66.09
2022-09-23T17:43:09.363Z,67.54
2022-09-23T17:47:11.505Z,67.95
2022-09-23T17:51:16.081Z,68.91
2022-09-23T17:55:19.118Z,69.79
2022-09-23T17:59:21.129Z,70.93
2022-09-23T18:03:24.967Z,70.92
2022-09-23T18:07:26.967Z,71.93
2022-09-23T18:11:30.900Z,72.39
2022-09-23T18:15:39.987Z,73.55
2022-09-23T18:19:42.469Z,73.18
2022-09-23T18:23:44.479Z,73.10
2022-09-23T18:27:46.525Z,73.36
2022-09-23T18:31:50.990Z,74.32
2022-09-23T18:35:53.148Z,75.19
2022-09-23T18:39:55.546Z,75.59
2022-09-23T18:43:57.630Z,75.88
2022-09-23T18:48:18.240Z,76.95
2022-09-23T18:52:20.771Z,77.25
2022-09-23T18:56:24.600Z,78.11
2022-09-23T19:00:27.049Z,79.62
2022-09-23T19:04:29.156Z,79.98
2022-09-23T19:08:31.211Z,80.48
2022-09-23T19:12:33.180Z,81.11
2022-09-23T19:16:36.436Z,81.06
2022-09-23T19:20:38.402Z,80.61
2022-09-23T19:24:40.497Z,81.37
2022-09-23T19:28:50.931Z,82.73
2022-09-23T19:32:52.960Z,83.53
2022-09-23T19:36:59.560Z,84.88
2022-09-23T19:41:09.114Z,84.68
2022-09-23T19:45:11.167Z,84.64
2022-09-23T19:49:13.323Z,84.10
2022-09-23T19:53:15.449Z,83.49
2022-09-23T19:57:17.892Z,83.45
2022-09-23T20:01:21.473Z,83.42
2022-09-23T20:05:25.049Z,83.56
2022-09-23T20:09:29.016Z,83.97
2022-09-23T20:13:32.498Z,85.55
2022-09-23T20:17:35.215Z,85.63
2022-09-23T20:21:37.949Z,87.16
2022-09-23T20:25:58.870Z,86.79
2022-09-23T20:30:02.700Z,86.77
2022-09-23T20:34:07.080Z,86.82
2022-09-23T20:38:10.415Z,86.06
2022-09-23T20:42:16.508Z,87.10
2022-09-23T20:46:18.650Z,86.61
2022-09-23T20:50:20.816Z,88.71
2022-09-23T20:54:22.819Z,88.82
2022-09-23T20:58:30.333Z,89.10
2022-09-23T21:02:32.412Z,89.86
2022-09-23T21:06:36.803Z,89.33
2022-09-23T21:10:38.957Z,87.77
2022-09-23T21:14:41.015Z,87.84
2022-09-23T21:18:43.958Z,89.20
2022-09-23T21:22:49.880Z,90.23
2022-09-23T21:26:51.901Z,91.91
2022-09-23T21:30:58.458Z,92.32
2022-09-23T21:35:00.552Z,92.27
2022-09-23T21:39:04.486Z,91.87
2022-09-23T21:43:06.492Z,90.69
2022-09-23T21:47:08.564Z,90.87
2022-09-23T21:51:14.074Z,92.26
2022-09-23T21:55:16.513Z,92.11
2022-09-23T21:59:18.583Z,91.90
2022-09-23T22:03:21.230Z,92.69
2022-09-23T22:07:23.807Z,93.77
2022-09-23T22:11:47.396Z,93.26
2022-09-23T22:15:49.662Z,94.39
2022-09-23T22:19:51.714Z,95.49
2022-09-23T22:23:57.060Z,95.17
2022-09-23T22:28:17.914Z,95.22
2022-09-23T22:32:39.095Z,95.18
2022-09-23T22:36:41.170Z,93.62
2022-09-23T22:40:43.472Z,93.87
2022-09-23T22:44:45.925Z,93.87
2022-09-23T22:48:53.221Z,93.44
2022-09-23T22:52:55.251Z,93.93
2022-09-23T22:56:57.224Z,94.63
2022-09-23T23:00:59.303Z,93.99
2022-09-23T23:05:02.163Z,92.98
2022-09-23T23:09:18.170Z,94.03
2022-09-23T23:13:21.554Z,94.37
2022-09-23T23:17:23.529Z,94.34
2022-09-23T23:21:25.694Z,94.12
2022-09-23T23:25:28.129Z,93.75
2022-09-23T23:29:30.118Z,93.45
2022-09-23T23:33:32.335Z,94.24
2022-09-23T23:37:34.354Z,94.08
2022-09-23T23:41:37.450Z,94.65
2022-09-23T23:45:39.766Z,94.35
2022-09-23T23:49:41.796Z,94.51
2022-09-23T23:53:43.876Z,94.26
2022-09-23T23:57:45.838Z,93.58
